地図

経路データ

SID SEASON NUMBER BASIN SUBBASIN NAME ISO_TIME NATURE LAT LON WMO_WIND WMO_PRES WMO_AGENCY TRACK_TYPE DIST2LAND LANDFALL IFLAG USA_AGENCY USA_ATCF_ID USA_LAT USA_LON USA_RECORD USA_STATUS USA_WIND USA_PRES USA_SSHS USA_R34_NE USA_R34_SE USA_R34_SW USA_R34_NW USA_R50_NE USA_R50_SE USA_R50_SW USA_R50_NW USA_R64_NE USA_R64_SE USA_R64_SW USA_R64_NW USA_POCI USA_ROCI USA_RMW USA_EYE TOKYO_LAT TOKYO_LON TOKYO_GRADE TOKYO_WIND TOKYO_PRES TOKYO_R50_DIR TOKYO_R50_LONG TOKYO_R50_SHORT TOKYO_R30_DIR TOKYO_R30_LONG TOKYO_R30_SHORT TOKYO_LAND CMA_LAT CMA_LON CMA_CAT CMA_WIND CMA_PRES HKO_LAT HKO_LON HKO_CAT HKO_WIND HKO_PRES NEWDELHI_LAT NEWDELHI_LON NEWDELHI_GRADE NEWDELHI_WIND NEWDELHI_PRES NEWDELHI_CI NEWDELHI_DP NEWDELHI_POCI REUNION_LAT REUNION_LON REUNION_TYPE REUNION_WIND REUNION_PRES REUNION_TNUM REUNION_CI REUNION_RMW REUNION_R34_NE REUNION_R34_SE REUNION_R34_SW REUNION_R34_NW REUNION_R50_NE REUNION_R50_SE REUNION_R50_SW REUNION_R50_NW REUNION_R64_NE REUNION_R64_SE REUNION_R64_SW REUNION_R64_NW BOM_LAT BOM_LON BOM_TYPE BOM_WIND BOM_PRES BOM_TNUM BOM_CI BOM_RMW BOM_R34_NE BOM_R34_SE BOM_R34_SW BOM_R34_NW BOM_R50_NE BOM_R50_SE BOM_R50_SW BOM_R50_NW BOM_R64_NE BOM_R64_SE BOM_R64_SW BOM_R64_NW BOM_ROCI BOM_POCI BOM_EYE BOM_POS_METHOD BOM_PRES_METHOD NADI_LAT NADI_LON NADI_CAT NADI_WIND NADI_PRES WELLINGTON_LAT WELLINGTON_LON WELLINGTON_WIND WELLINGTON_PRES DS824_LAT DS824_LON DS824_STAGE DS824_WIND DS824_PRES TD9636_LAT TD9636_LON TD9636_STAGE TD9636_WIND TD9636_PRES TD9635_LAT TD9635_LON TD9635_WIND TD9635_PRES TD9635_ROCI NEUMANN_LAT NEUMANN_LON NEUMANN_CLASS NEUMANN_WIND NEUMANN_PRES MLC_LAT MLC_LON MLC_CLASS MLC_WIND MLC_PRES USA_GUST BOM_GUST BOM_GUST_PER REUNION_GUST REUNION_GUST_PER USA_SEAHGT USA_SEARAD_NE USA_SEARAD_SE USA_SEARAD_SW USA_SEARAD_NW STORM_SPEED STORM_DIR
1967262N14346 1967 103 NA NA NOT_NAMED 1967-09-18 12:00:00 TS 14.0000 -14.5000 hurdat_atl main 0 0 O_____________ hurdat_atl AL151967 14.0000 -14.5000 TD -1 6 281
1967262N14346 1967 103 NA NA NOT_NAMED 1967-09-18 15:00:00 TS 14.0625 -14.8199 main 0 0 P_____________ AL151967 14.0625 -14.8199 TD -1 7 278
1967262N14346 1967 103 NA NA NOT_NAMED 1967-09-18 18:00:00 TS 14.1000 -15.2000 hurdat_atl main 0 0 O_____________ hurdat_atl AL151967 14.1000 -15.2000 TD -1 8 273
1967262N14346 1967 103 NA NA NOT_NAMED 1967-09-18 21:00:00 TS 14.1000 -15.6776 main 0 0 P_____________ AL151967 14.1000 -15.6776 TD -1 10 270
1967262N14346 1967 103 NA NA NOT_NAMED 1967-09-19 00:00:00 TS 14.1000 -16.2000 hurdat_atl main 0 0 O_____________ hurdat_atl AL151967 14.1000 -16.2000 TD -1 10 272
1967262N14346 1967 103 NA NA NOT_NAMED 1967-09-19 03:00:00 TS 14.1422 -16.6775 main 0 0 P_____________ AL151967 14.1422 -16.6775 TD -1 10 276
1967262N14346 1967 103 NA NA NOT_NAMED 1967-09-19 06:00:00 TS 14.2000 -17.2000 hurdat_atl main 31 31 O_____________ hurdat_atl AL151967 14.2000 -17.2000 TD -1 11 275
1967262N14346 1967 103 NA NA NOT_NAMED 1967-09-19 09:00:00 TS 14.2424 -17.8126 main 62 62 P_____________ AL151967 14.2424 -17.8126 TD -1 13 275
1967262N14346 1967 103 NA NA NOT_NAMED 1967-09-19 12:00:00 TS 14.3000 -18.5000 hurdat_atl main 116 116 O_____________ hurdat_atl AL151967 14.3000 -18.5000 TD -1 14 277
1967262N14346 1967 103 NA NA NOT_NAMED 1967-09-19 15:00:00 TS 14.4076 -19.2573 main 196 196 P_____________ AL151967 14.4076 -19.2573 TD -1 15 278
1967262N14346 1967 103 NA NA NOT_NAMED 1967-09-19 18:00:00 TS 14.5000 -20.0000 hurdat_atl main 270 270 O_____________ hurdat_atl AL151967 14.5000 -20.0000 TD -1 13 274
1967262N14346 1967 103 NA NA NOT_NAMED 1967-09-19 21:00:00 TS 14.5068 -20.5852 main 334 334 P_____________ AL151967 14.5068 -20.5852 TD -1 12 270
1967262N14346 1967 103 NA NA NOT_NAMED 1967-09-20 00:00:00 TS 14.5000 -21.2000 hurdat_atl main 398 398 O_____________ hurdat_atl AL151967 14.5000 -21.2000 TD -1 14 272
1967262N14346 1967 103 NA NA NOT_NAMED 1967-09-20 03:00:00 TS 14.5504 -22.0499 main 484 484 P_____________ AL151967 14.5504 -22.0499 TD -1 17 273
1967262N14346 1967 103 NA NA NOT_NAMED 1967-09-20 06:00:00 TS 14.6000 -22.9000 hurdat_atl main 581 581 O_____________ hurdat_atl AL151967 14.6000 -22.9000 TD -1 15 272
1967262N14346 1967 103 NA NA NOT_NAMED 1967-09-20 09:00:00 TS 14.6071 -23.5525 main 656 656 P_____________ AL151967 14.6071 -23.5525 TD -1 12 270
1967262N14346 1967 103 NA NA NOT_NAMED 1967-09-20 12:00:00 TS 14.6000 -24.1000 hurdat_atl main 710 710 O_____________ hurdat_atl AL151967 14.6000 -24.1000 TD -1 10 269
1967262N14346 1967 103 NA NA NOT_NAMED 1967-09-20 15:00:00 TS 14.5843 -24.5552 main 764 764 P_____________ AL151967 14.5843 -24.5552 TD -1 10 270
1967262N14346 1967 103 NA NA NOT_NAMED 1967-09-20 18:00:00 TS 14.6000 -25.1000 hurdat_atl main 818 818 O_____________ hurdat_atl AL151967 14.6000 -25.1000 TD -1 14 275
1967262N14346 1967 103 NA NA NOT_NAMED 1967-09-20 21:00:00 TS 14.6931 -25.9773 main 914 914 P_____________ AL151967 14.6931 -25.9773 TD -1 18 277
1967262N14346 1967 103 NA NA NOT_NAMED 1967-09-21 00:00:00 TS 14.8000 -26.9000 hurdat_atl main 1011 1011 O_____________ hurdat_atl AL151967 14.8000 -26.9000 TD -1 15 276
1967262N14346 1967 103 NA NA NOT_NAMED 1967-09-21 03:00:00 TS 14.8566 -27.5502 main 1086 1086 P_____________ AL151967 14.8566 -27.5502 TD -1 13 275
1967262N14346 1967 103 NA NA NOT_NAMED 1967-09-21 06:00:00 TS 14.9000 -28.2000 hurdat_atl main 1150 1150 O_____________ hurdat_atl AL151967 14.9000 -28.2000 TD -1 15 274
1967262N14346 1967 103 NA NA NOT_NAMED 1967-09-21 09:00:00 TS 14.9506 -29.1150 main 1247 1247 P_____________ AL151967 14.9506 -29.1150 TD -1 17 273
1967262N14346 1967 103 NA NA NOT_NAMED 1967-09-21 12:00:00 TS 15.0000 -30.0000 hurdat_atl main 1344 1344 O_____________ hurdat_atl AL151967 15.0000 -30.0000 TD -1 14 274
1967262N14346 1967 103 NA NA NOT_NAMED 1967-09-21 15:00:00 TS 15.0415 -30.5502 main 1408 1408 P_____________ AL151967 15.0415 -30.5502 TD -1 11 275
1967262N14346 1967 103 NA NA NOT_NAMED 1967-09-21 18:00:00 TS 15.1000 -31.1000 hurdat_atl main 1462 1462 O_____________ hurdat_atl AL151967 15.1000 -31.1000 TD -1 14 277
1967262N14346 1967 103 NA NA NOT_NAMED 1967-09-21 21:00:00 TS 15.2004 -31.9624 main 1559 1559 P_____________ AL151967 15.2004 -31.9624 TD -1 18 277
1967262N14346 1967 103 NA NA NOT_NAMED 1967-09-22 00:00:00 TS 15.3000 -32.9000 hurdat_atl main 1655 1655 O_____________ hurdat_atl AL151967 15.3000 -32.9000 TD -1 17 275
1967262N14346 1967 103 NA NA NOT_NAMED 1967-09-22 03:00:00 TS 15.3496 -33.7227 main 1741 1741 P_____________ AL151967 15.3496 -33.7227 TD -1 15 274
1967262N14346 1967 103 NA NA NOT_NAMED 1967-09-22 06:00:00 TS 15.4000 -34.5000 hurdat_atl main 1827 1827 O_____________ hurdat_atl AL151967 15.4000 -34.5000 TD -1 15 276
1967262N14346 1967 103 NA NA NOT_NAMED 1967-09-22 09:00:00 TS 15.5074 -35.2873 main 1913 1913 P_____________ AL151967 15.5074 -35.2873 TD -1 15 278
1967262N14346 1967 103 NA NA NOT_NAMED 1967-09-22 12:00:00 TS 15.6000 -36.0000 hurdat_atl main 1988 1988 O_____________ hurdat_atl AL151967 15.6000 -36.0000 TD -1 13 274
1967262N14346 1967 103 NA NA NOT_NAMED 1967-09-22 15:00:00 TS 15.5996 -36.5802 main 2046 2003 P_____________ AL151967 15.5996 -36.5802 TD -1 11 270
1967262N14346 1967 103 NA NA NOT_NAMED 1967-09-22 18:00:00 TS 15.6000 -37.1000 hurdat_atl main 2003 1968 O_____________ hurdat_atl AL151967 15.6000 -37.1000 TD -1 10 275
1967262N14346 1967 103 NA NA NOT_NAMED 1967-09-22 21:00:00 TS 15.6921 -37.6199 main 1968 1926 P_____________ AL151967 15.6921 -37.6199 TD -1 11 281
1967262N14346 1967 103 NA NA NOT_NAMED 1967-09-23 00:00:00 TS 15.8000 -38.2000 hurdat_atl main 1926 1877 O_____________ hurdat_atl AL151967 15.8000 -38.2000 TD -1 13 277
1967262N14346 1967 103 NA NA NOT_NAMED 1967-09-23 03:00:00 TS 15.8577 -38.9351 main 1877 1815 P_____________ AL151967 15.8577 -38.9351 TD -1 14 274
1967262N14346 1967 103 NA NA NOT_NAMED 1967-09-23 06:00:00 TS 15.9000 -39.7000 hurdat_atl main 1815 1770 O_____________ hurdat_atl AL151967 15.9000 -39.7000 TD -1 14 274
1967262N14346 1967 103 NA NA NOT_NAMED 1967-09-23 09:00:00 TS 15.9498 -40.3800 main 1763 1727 P_____________ AL151967 15.9498 -40.3800 TD -1 13 275
1967262N14346 1967 103 NA NA NOT_NAMED 1967-09-23 12:00:00 TS 16.0000 -41.0000 hurdat_atl main 1727 1699 O_____________ hurdat_atl AL151967 16.0000 -41.0000 TD -1 11 276
1967262N14346 1967 103 NA NA NOT_NAMED 1967-09-23 15:00:00 TS 16.0570 -41.5350 main 1701 1660 P_____________ AL151967 16.0570 -41.5350 TD -1 11 275
1967262N14346 1967 103 NA NA NOT_NAMED 1967-09-23 18:00:00 TS 16.1000 -42.1000 hurdat_atl main 1660 1615 O_____________ hurdat_atl AL151967 16.1000 -42.1000 TD -1 12 272
1967262N14346 1967 103 NA NA NOT_NAMED 1967-09-23 21:00:00 TS 16.1001 -42.8277 main 1615 1566 P_____________ AL151967 16.1001 -42.8277 TD -1 14 270
1967262N14346 1967 103 NA NA NOT_NAMED 1967-09-24 00:00:00 TS 16.1000 -43.6000 hurdat_atl main 1566 1520 O_____________ hurdat_atl AL151967 16.1000 -43.6000 TD -1 14 272
1967262N14346 1967 103 NA NA NOT_NAMED 1967-09-24 03:00:00 TS 16.1422 -44.3075 main 1520 1485 P_____________ AL151967 16.1422 -44.3075 TD -1 13 274
1967262N14346 1967 103 NA NA NOT_NAMED 1967-09-24 06:00:00 TS 16.2000 -45.0000 hurdat_atl main 1485 1443 O_____________ hurdat_atl AL151967 16.2000 -45.0000 TD -1 14 275
1967262N14346 1967 103 NA NA NOT_NAMED 1967-09-24 09:00:00 TS 16.2500 -45.7300 main 1453 1415 P_____________ AL151967 16.2500 -45.7300 TD -1 13 274
1967262N14346 1967 103 NA NA NOT_NAMED 1967-09-24 12:00:00 TS 16.3000 -46.4000 hurdat_atl main 1415 1390 O_____________ hurdat_atl AL151967 16.3000 -46.4000 TD -1 11 275
1967262N14346 1967 103 NA NA NOT_NAMED 1967-09-24 15:00:00 TS 16.3493 -46.8926 main 1390 1375 P_____________ AL151967 16.3493 -46.8926 TD -1 10 276
1967262N14346 1967 103 NA NA NOT_NAMED 1967-09-24 18:00:00 TS 16.4000 -47.4000 hurdat_atl main 1375 1348 O_____________ hurdat_atl AL151967 16.4000 -47.4000 TD -1 12 275
1967262N14346 1967 103 NA NA NOT_NAMED 1967-09-24 21:00:00 TS 16.4579 -48.1424 main 1355 1320 P_____________ AL151967 16.4579 -48.1424 TD -1 14 274
1967262N14346 1967 103 NA NA NOT_NAMED 1967-09-25 00:00:00 TS 16.5000 -48.9000 hurdat_atl main 1320 1297 O_____________ hurdat_atl AL151967 16.5000 -48.9000 TD -1 13 272
1967262N14346 1967 103 NA NA NOT_NAMED 1967-09-25 03:00:00 TS 16.5069 -49.4576 main 1292 1272 P_____________ AL151967 16.5069 -49.4576 TD -1 11 270
1967262N14346 1967 103 NA NA NOT_NAMED 1967-09-25 06:00:00 TS 16.5000 -50.0000 hurdat_atl main 1272 1250 O_____________ hurdat_atl AL151967 16.5000 -50.0000 TD -1 12 270
1967262N14346 1967 103 NA NA NOT_NAMED 1967-09-25 09:00:00 TS 16.5000 -50.6850 main 1246 1223 P_____________ AL151967 16.5000 -50.6850 TD -1 13 270
1967262N14346 1967 103 NA NA NOT_NAMED 1967-09-25 12:00:00 TS 16.5000 -51.4000 hurdat_atl main 1223 1169 O_____________ hurdat_atl AL151967 16.5000 -51.4000 TD -1 13 271
1967262N14346 1967 103 NA NA NOT_NAMED 1967-09-25 15:00:00 TS 16.5147 -52.0498 main 1169 1107 P_____________ AL151967 16.5147 -52.0498 TD -1 12 270
1967262N14346 1967 103 NA NA NOT_NAMED 1967-09-25 18:00:00 TS 16.5000 -52.7000 hurdat_atl main 1107 1048 O_____________ hurdat_atl AL151967 16.5000 -52.7000 TD -1 13 266
1967262N14346 1967 103 NA NA NOT_NAMED 1967-09-25 21:00:00 TS 16.4222 -53.3775 main 1040 974 P_____________ AL151967 16.4222 -53.3775 TD -1 14 262
1967262N14346 1967 103 NA NA NOT_NAMED 1967-09-26 00:00:00 TS 16.3000 -54.1000 hurdat_atl main 974 902 O_____________ hurdat_atl AL151967 16.3000 -54.1000 TD -1 15 260
1967262N14346 1967 103 NA NA NOT_NAMED 1967-09-26 03:00:00 TS 16.1501 -54.9076 main 902 825 P_____________ AL151967 16.1501 -54.9076 TD -1 16 259
1967262N14346 1967 103 NA NA NOT_NAMED 1967-09-26 06:00:00 TS 16.0000 -55.7000 hurdat_atl main 825 773 O_____________ hurdat_atl AL151967 16.0000 -55.7000 TD -1 14 260
1967262N14346 1967 103 NA NA NOT_NAMED 1967-09-26 09:00:00 TS 15.8876 -56.3849 main 766 716 P_____________ AL151967 15.8876 -56.3849 TD -1 13 261
1967262N14346 1967 103 NA NA NOT_NAMED 1967-09-26 12:00:00 TS 15.8000 -57.0000 hurdat_atl main 716 O_____________ hurdat_atl AL151967 15.8000 -57.0000 TD -1 12 262

IBTrACS Databaseについて

本データベースは、米国NOAAが公開する1842年以降の世界の熱帯低気圧のベストトラックデータアーカイブInternational Best Track Archive for Climate Stewardship (IBTrACS)を、ウェブで閲覧しやすい形式に変換したものです。

最終更新日:2021-11-26